createdAt,value
2023-02-09T00:00:51.046Z,83.71
2023-02-09T00:01:51.789Z,83.64
2023-02-09T00:02:52.496Z,84.06
2023-02-09T00:03:53.250Z,85.11
2023-02-09T00:04:53.918Z,85.00
2023-02-09T00:05:54.614Z,82.81
2023-02-09T00:06:55.323Z,83.23
2023-02-09T00:07:56.049Z,84.23
2023-02-09T00:08:56.800Z,85.90
2023-02-09T00:09:57.467Z,84.96
2023-02-09T00:10:58.190Z,83.08
2023-02-09T00:11:58.856Z,83.08
2023-02-09T00:12:59.573Z,83.08
2023-02-09T00:14:00.293Z,84.55
2023-02-09T00:15:00.994Z,83.61
2023-02-09T00:16:01.993Z,83.85
2023-02-09T00:17:02.239Z,83.54
2023-02-09T00:18:02.950Z,83.12
2023-02-09T00:19:03.657Z,83.23
2023-02-09T00:20:04.360Z,84.27
2023-02-09T00:21:05.066Z,84.17
2023-02-09T00:22:05.780Z,84.48
2023-02-09T00:23:06.487Z,85.11
2023-02-09T00:24:07.215Z,84.79
2023-02-09T00:25:07.898Z,84.79
2023-02-09T00:26:08.631Z,84.89
2023-02-09T00:27:09.297Z,85.83
2023-02-09T00:28:10.469Z,85.11
2023-02-09T00:29:10.670Z,85.00
2023-02-09T00:30:11.405Z,83.64
2023-02-09T00:31:12.204Z,84.58
2023-02-09T00:32:12.929Z,84.06
2023-02-09T00:33:13.912Z,85.04
2023-02-09T00:34:14.616Z,85.35
2023-02-09T00:35:15.329Z,85.98
2023-02-09T00:36:16.028Z,85.67
2023-02-09T00:37:16.738Z,85.29
2023-02-09T00:38:17.910Z,85.29
2023-02-09T00:39:18.145Z,84.97
2023-02-09T00:40:18.826Z,85.39
2023-02-09T00:41:19.554Z,84.97
2023-02-09T00:42:20.224Z,86.13
2023-02-09T00:43:21.410Z,86.54
2023-02-09T00:44:21.640Z,86.65
2023-02-09T00:45:22.338Z,86.96
2023-02-09T00:46:23.047Z,85.88
2023-02-09T00:47:23.752Z,85.98
2023-02-09T00:48:24.912Z,85.88
2023-02-09T00:49:25.113Z,85.25
2023-02-09T00:50:25.829Z,85.35
2023-02-09T00:51:26.529Z,85.88
2023-02-09T00:52:27.240Z,85.52
2023-02-09T00:53:27.956Z,85.42
2023-02-09T00:54:28.683Z,85.00
2023-02-09T00:55:29.373Z,85.31
2023-02-09T00:56:30.099Z,85.00
2023-02-09T00:57:30.795Z,85.31
2023-02-09T00:58:31.512Z,84.27
2023-02-09T00:59:32.232Z,83.95
2023-02-09T01:00:32.949Z,85.11
2023-02-09T01:01:33.737Z,84.58
2023-02-09T01:02:34.388Z,84.58
2023-02-09T01:03:35.104Z,85.98
2023-02-09T01:04:35.858Z,84.69
2023-02-09T01:05:36.522Z,84.62
2023-02-09T01:06:37.289Z,84.00
2023-02-09T01:07:38.002Z,84.73
2023-02-09T01:08:38.727Z,84.52
2023-02-09T01:09:39.462Z,85.14
2023-02-09T01:10:40.180Z,85.98
2023-02-09T01:11:40.895Z,84.31
2023-02-09T01:12:41.533Z,86.19
2023-02-09T01:13:42.254Z,84.94
2023-02-09T01:14:42.953Z,84.89
2023-02-09T01:15:43.663Z,84.17
2023-02-09T01:16:44.488Z,84.17
2023-02-09T01:17:45.197Z,83.85
2023-02-09T01:18:45.916Z,84.06
2023-02-09T01:19:46.618Z,84.69
2023-02-09T01:20:47.534Z,84.06
2023-02-09T01:21:47.841Z,84.38
2023-02-09T01:22:48.549Z,84.94
2023-02-09T01:23:49.407Z,84.73
2023-02-09T01:24:50.130Z,85.67
2023-02-09T01:25:50.819Z,85.83
2023-02-09T01:26:51.550Z,85.67
2023-02-09T01:27:52.333Z,85.98
2023-02-09T01:28:53.012Z,84.58
2023-02-09T01:29:53.717Z,86.08
2023-02-09T01:30:54.488Z,85.04
2023-02-09T01:31:55.323Z,84.83
2023-02-09T01:32:56.004Z,85.14
2023-02-09T01:33:56.905Z,85.56
2023-02-09T01:34:57.609Z,84.89
2023-02-09T01:35:58.323Z,85.88
2023-02-09T01:36:59.030Z,85.56
2023-02-09T01:37:59.748Z,84.94
2023-02-09T01:39:00.906Z,86.08
2023-02-09T01:40:01.130Z,85.67
2023-02-09T01:41:01.820Z,85.56
2023-02-09T01:42:02.551Z,85.67
2023-02-09T01:43:03.207Z,85.98
2023-02-09T01:44:03.919Z,85.77
2023-02-09T01:45:04.622Z,86.19
2023-02-09T01:46:05.344Z,86.08
2023-02-09T01:47:06.033Z,86.40
2023-02-09T01:48:06.748Z,85.35
2023-02-09T01:49:07.499Z,86.08
2023-02-09T01:50:08.177Z,86.19
2023-02-09T01:51:08.874Z,87.45
2023-02-09T01:52:09.579Z,86.82
2023-02-09T01:53:10.284Z,85.88
2023-02-09T01:54:11.003Z,85.98
2023-02-09T01:55:11.811Z,87.38
2023-02-09T01:56:12.443Z,86.96
2023-02-09T01:57:13.166Z,86.92
2023-02-09T01:58:13.827Z,87.13
2023-02-09T01:59:14.907Z,87.13
2023-02-09T02:00:15.122Z,86.40
2023-02-09T02:01:15.847Z,87.23
2023-02-09T02:02:16.584Z,86.61
2023-02-09T02:03:17.247Z,87.38
2023-02-09T02:04:17.966Z,87.48
2023-02-09T02:05:18.669Z,87.45
2023-02-09T02:06:19.379Z,87.23
2023-02-09T02:07:20.087Z,87.55
2023-02-09T02:08:20.798Z,87.65
2023-02-09T02:09:21.526Z,86.85
2023-02-09T02:10:22.256Z,86.75
2023-02-09T02:11:22.938Z,87.38
2023-02-09T02:12:23.663Z,87.38
2023-02-09T02:13:24.313Z,87.02
2023-02-09T02:14:25.029Z,87.13
2023-02-09T02:15:25.841Z,86.92
2023-02-09T02:16:26.533Z,86.40
2023-02-09T02:17:27.248Z,86.25
2023-02-09T02:18:27.944Z,86.15
2023-02-09T02:19:28.666Z,85.94
2023-02-09T02:20:29.376Z,86.57
2023-02-09T02:21:30.081Z,86.82
2023-02-09T02:22:30.788Z,86.51
2023-02-09T02:23:31.493Z,87.34
2023-02-09T02:24:32.209Z,87.23
2023-02-09T02:25:32.934Z,87.45
2023-02-09T02:26:33.624Z,86.51
2023-02-09T02:27:34.355Z,86.82
2023-02-09T02:28:35.015Z,87.02
2023-02-09T02:29:35.729Z,87.23
2023-02-09T02:30:36.546Z,87.23
2023-02-09T02:31:37.283Z,86.82
2023-02-09T02:32:37.958Z,87.02
2023-02-09T02:33:38.682Z,86.51
2023-02-09T02:34:39.400Z,86.40
2023-02-09T02:35:40.112Z,86.71
2023-02-09T02:36:40.982Z,86.82
2023-02-09T02:37:41.694Z,87.02
2023-02-09T02:38:42.404Z,86.82
2023-02-09T02:39:43.411Z,87.02
2023-02-09T02:40:43.963Z,86.75
2023-02-09T02:41:44.251Z,87.17
2023-02-09T02:42:44.976Z,87.34
2023-02-09T02:43:45.620Z,87.34
2023-02-09T02:44:46.336Z,86.40
2023-02-09T02:45:47.052Z,86.85
2023-02-09T02:46:47.756Z,86.96
2023-02-09T02:47:48.458Z,87.48
2023-02-09T02:48:49.168Z,87.07
2023-02-09T02:49:49.903Z,87.27
2023-02-09T02:50:50.657Z,87.80
2023-02-09T02:51:51.331Z,87.80
2023-02-09T02:52:52.076Z,87.59
2023-02-09T02:53:52.780Z,86.85
2023-02-09T02:54:53.497Z,87.80
2023-02-09T02:55:54.224Z,87.80
2023-02-09T02:56:54.908Z,87.90
2023-02-09T02:57:55.649Z,87.90
2023-02-09T02:58:56.326Z,87.90
2023-02-09T02:59:57.405Z,87.38
2023-02-09T03:00:57.625Z,87.07
2023-02-09T03:01:58.323Z,87.80
2023-02-09T03:02:59.082Z,87.27
2023-02-09T03:03:59.808Z,87.38
2023-02-09T03:05:01.016Z,87.48
2023-02-09T03:06:01.194Z,88.04
2023-02-09T03:07:01.895Z,88.36
2023-02-09T03:08:02.605Z,88.46
2023-02-09T03:09:03.313Z,88.32
2023-02-09T03:10:04.063Z,88.11
2023-02-09T03:11:04.767Z,87.48
2023-02-09T03:12:05.457Z,87.17
2023-02-09T03:13:06.180Z,87.48
2023-02-09T03:14:06.844Z,87.69
2023-02-09T03:15:07.566Z,87.90
2023-02-09T03:16:08.364Z,88.01
2023-02-09T03:17:09.102Z,88.11
2023-02-09T03:18:09.803Z,87.27
2023-02-09T03:19:10.517Z,88.32
2023-02-09T03:20:11.408Z,88.04
2023-02-09T03:21:12.122Z,87.63
2023-02-09T03:22:12.821Z,87.94
2023-02-09T03:23:13.530Z,88.67
2023-02-09T03:24:14.239Z,88.01
2023-02-09T03:25:15.407Z,87.48
2023-02-09T03:26:15.649Z,88.11
2023-02-09T03:27:16.337Z,88.21
2023-02-09T03:28:17.186Z,87.80
2023-02-09T03:29:17.854Z,86.90
2023-02-09T03:30:18.911Z,87.31
2023-02-09T03:31:19.258Z,87.52
2023-02-09T03:32:19.961Z,87.94
2023-02-09T03:33:20.662Z,87.42
2023-02-09T03:34:21.369Z,87.52
2023-02-09T03:35:22.408Z,87.00
2023-02-09T03:36:22.618Z,87.84
2023-02-09T03:37:23.327Z,88.04
2023-02-09T03:38:24.049Z,87.94
2023-02-09T03:39:24.760Z,88.04
2023-02-09T03:40:25.474Z,87.84
2023-02-09T03:41:26.201Z,87.73
2023-02-09T03:42:26.896Z,87.52
2023-02-09T03:43:27.615Z,87.00
2023-02-09T03:44:28.393Z,87.42
2023-02-09T03:45:29.119Z,87.84
2023-02-09T03:46:29.916Z,87.17
2023-02-09T03:47:30.585Z,87.21
2023-02-09T03:48:31.292Z,87.00
2023-02-09T03:49:32.006Z,87.48
2023-02-09T03:50:32.911Z,86.85
2023-02-09T03:51:33.635Z,86.96
2023-02-09T03:52:34.336Z,86.96
2023-02-09T03:53:35.032Z,87.27
2023-02-09T03:54:35.736Z,86.85
2023-02-09T03:55:36.913Z,86.65
2023-02-09T03:56:37.145Z,87.31
2023-02-09T03:57:37.910Z,87.42
2023-02-09T03:58:38.635Z,87.21
2023-02-09T03:59:39.275Z,87.52
2023-02-09T04:00:40.046Z,87.63
2023-02-09T04:01:40.702Z,86.69
2023-02-09T04:02:41.424Z,87.10
2023-02-09T04:03:42.112Z,87.04
2023-02-09T04:04:42.821Z,87.98
2023-02-09T04:05:43.606Z,87.73
2023-02-09T04:06:44.306Z,87.73
2023-02-09T04:07:45.012Z,87.63
2023-02-09T04:08:45.720Z,87.77
2023-02-09T04:09:46.436Z,87.98
2023-02-09T04:10:47.398Z,87.35
2023-02-09T04:11:47.684Z,87.63
2023-02-09T04:12:48.372Z,87.00
2023-02-09T04:13:49.094Z,86.90
2023-02-09T04:14:49.766Z,87.73
2023-02-09T04:15:50.925Z,87.42
2023-02-09T04:16:51.120Z,87.84
2023-02-09T04:17:51.827Z,87.94
2023-02-09T04:18:52.538Z,88.19
2023-02-09T04:19:53.230Z,87.77
2023-02-09T04:20:53.946Z,87.66
2023-02-09T04:21:54.652Z,88.50
2023-02-09T04:22:55.358Z,87.77
2023-02-09T04:23:56.069Z,87.98
2023-02-09T04:24:56.768Z,88.29
2023-02-09T04:25:57.487Z,87.77
2023-02-09T04:26:58.228Z,88.19
2023-02-09T04:27:58.908Z,88.29
2023-02-09T04:28:59.633Z,88.40
2023-02-09T04:30:00.329Z,88.29
2023-02-09T04:31:01.105Z,87.98
2023-02-09T04:32:01.782Z,88.09
2023-02-09T04:33:02.452Z,88.19
2023-02-09T04:34:03.159Z,88.19
2023-02-09T04:35:03.886Z,88.29
2023-02-09T04:36:04.587Z,88.29
2023-02-09T04:37:05.298Z,87.77
2023-02-09T04:38:05.988Z,88.09
2023-02-09T04:39:06.707Z,88.19
2023-02-09T04:40:07.839Z,88.40
2023-02-09T04:41:08.039Z,89.03
2023-02-09T04:42:08.765Z,87.98
2023-02-09T04:43:09.451Z,88.71
2023-02-09T04:44:10.175Z,88.50
2023-02-09T04:45:10.803Z,88.71
2023-02-09T04:46:11.960Z,88.19
2023-02-09T04:47:12.115Z,87.98
2023-02-09T04:48:12.832Z,88.40
2023-02-09T04:49:13.549Z,87.66
2023-02-09T04:50:14.244Z,88.82
2023-02-09T04:51:14.958Z,88.86
2023-02-09T04:52:15.674Z,88.96
2023-02-09T04:53:16.390Z,89.59
2023-02-09T04:54:17.099Z,90.43
2023-02-09T04:55:17.805Z,89.17
2023-02-09T04:56:18.538Z,89.48
2023-02-09T04:57:19.266Z,89.38
2023-02-09T04:58:19.935Z,88.96
2023-02-09T04:59:20.662Z,88.96
2023-02-09T05:00:21.318Z,88.44
2023-02-09T05:01:22.107Z,88.54
2023-02-09T05:02:22.795Z,88.65
2023-02-09T05:03:24.733Z,88.86
2023-02-09T05:04:24.444Z,89.07
2023-02-09T05:05:25.145Z,89.38
2023-02-09T05:06:25.915Z,89.17
2023-02-09T05:07:26.623Z,89.38
2023-02-09T05:08:27.329Z,89.17
2023-02-09T05:09:28.050Z,88.65
2023-02-09T05:10:28.758Z,88.96
2023-02-09T05:11:29.488Z,89.28
2023-02-09T05:12:30.220Z,88.96
2023-02-09T05:13:30.908Z,89.38
2023-02-09T05:14:31.634Z,88.86
2023-02-09T05:15:32.311Z,89.48
2023-02-09T05:16:33.456Z,89.07
2023-02-09T05:17:33.618Z,89.59
2023-02-09T05:18:34.329Z,89.28
2023-02-09T05:19:35.037Z,89.07
2023-02-09T05:20:35.750Z,89.38
2023-02-09T05:21:36.472Z,89.70
2023-02-09T05:22:37.175Z,89.17
2023-02-09T05:23:37.886Z,88.86
2023-02-09T05:24:38.592Z,89.07
2023-02-09T05:25:39.297Z,88.71
2023-02-09T05:26:40.016Z,89.13
2023-02-09T05:27:40.755Z,88.82
2023-02-09T05:28:41.449Z,89.38
2023-02-09T05:29:42.167Z,88.65
2023-02-09T05:30:42.935Z,89.07
2023-02-09T05:31:44.014Z,89.07
2023-02-09T05:32:44.193Z,88.75
2023-02-09T05:33:44.904Z,89.28
2023-02-09T05:34:45.607Z,89.07
2023-02-09T05:35:46.325Z,89.17
2023-02-09T05:36:47.043Z,89.07
2023-02-09T05:37:47.740Z,89.17
2023-02-09T05:38:48.458Z,89.70
2023-02-09T05:39:49.159Z,89.48
2023-02-09T05:40:50.255Z,89.17
2023-02-09T05:41:50.662Z,89.59
2023-02-09T05:42:51.387Z,89.90
2023-02-09T05:43:52.072Z,89.73
2023-02-09T05:44:52.795Z,90.05
2023-02-09T05:45:53.551Z,90.26
2023-02-09T05:46:54.422Z,90.16
2023-02-09T05:47:55.117Z,89.95
2023-02-09T05:48:55.829Z,89.63
2023-02-09T05:49:56.531Z,90.47
2023-02-09T05:50:57.240Z,90.68
2023-02-09T05:51:57.971Z,90.16
2023-02-09T05:52:58.668Z,90.68
2023-02-09T05:53:59.378Z,90.58
2023-02-09T05:55:00.096Z,90.47
2023-02-09T05:56:00.791Z,90.36
2023-02-09T05:57:01.535Z,90.26
2023-02-09T05:58:02.233Z,90.78
2023-02-09T05:59:04.477Z,90.05
2023-02-09T06:00:03.929Z,90.58
2023-02-09T06:01:04.600Z,90.58
2023-02-09T06:02:05.420Z,90.68
2023-02-09T06:03:06.128Z,90.58
2023-02-09T06:04:06.819Z,91.09
2023-02-09T06:05:07.524Z,90.99
2023-02-09T06:06:08.232Z,91.31
2023-02-09T06:07:11.837Z,91.09
2023-02-09T06:08:09.645Z,90.99
2023-02-09T06:09:10.352Z,90.58
2023-02-09T06:10:11.085Z,91.09
2023-02-09T06:11:11.834Z,90.78
2023-02-09T06:12:12.923Z,91.09
2023-02-09T06:13:13.608Z,91.31
2023-02-09T06:14:13.732Z,91.20
2023-02-09T06:15:14.463Z,90.89
2023-02-09T06:16:15.108Z,91.62
2023-02-09T06:17:15.839Z,91.20
2023-02-09T06:18:16.546Z,91.14
2023-02-09T06:19:17.261Z,92.19
2023-02-09T06:20:17.960Z,91.56
2023-02-09T06:21:18.670Z,91.56
2023-02-09T06:22:19.379Z,91.20
2023-02-09T06:23:20.084Z,91.41
2023-02-09T06:24:20.790Z,91.31
2023-02-09T06:25:21.498Z,92.04
2023-02-09T06:26:22.202Z,91.62
2023-02-09T06:27:23.404Z,91.20
2023-02-09T06:28:23.644Z,91.20
2023-02-09T06:29:24.318Z,91.41
2023-02-09T06:30:25.063Z,91.62
2023-02-09T06:31:25.816Z,91.09
2023-02-09T06:32:26.908Z,90.99
2023-02-09T06:33:27.110Z,90.58
2023-02-09T06:34:27.834Z,91.09
2023-02-09T06:35:28.530Z,91.09
2023-02-09T06:36:29.232Z,90.99
2023-02-09T06:37:29.962Z,90.89
2023-02-09T06:38:30.663Z,90.58
2023-02-09T06:39:31.373Z,90.58
2023-02-09T06:40:32.081Z,91.09
2023-02-09T06:41:32.797Z,91.20
2023-02-09T06:42:33.914Z,91.09
2023-02-09T06:43:34.147Z,91.83
2023-02-09T06:44:34.828Z,91.09
2023-02-09T06:45:35.556Z,90.99
2023-02-09T06:46:36.238Z,90.78
2023-02-09T06:47:36.916Z,91.20
2023-02-09T06:48:37.624Z,91.72
2023-02-09T06:49:38.353Z,91.83
2023-02-09T06:50:39.244Z,91.72
2023-02-09T06:51:40.176Z,91.72
2023-02-09T06:52:41.416Z,91.94
2023-02-09T06:53:41.617Z,91.72
2023-02-09T06:54:44.288Z,91.52
2023-02-09T06:55:43.184Z,92.04
2023-02-09T06:56:43.960Z,91.83
2023-02-09T06:57:44.677Z,91.62
2023-02-09T06:58:45.401Z,91.94
2023-02-09T06:59:46.112Z,91.72
2023-02-09T07:00:47.311Z,92.04
2023-02-09T07:01:47.665Z,91.72
2023-02-09T07:02:48.525Z,91.83
2023-02-09T07:03:49.246Z,91.72
2023-02-09T07:04:49.955Z,91.52
2023-02-09T07:05:50.662Z,91.52
2023-02-09T07:06:51.373Z,91.16
2023-02-09T07:07:52.089Z,91.27
2023-02-09T07:08:52.809Z,91.27
2023-02-09T07:09:53.509Z,91.16
2023-02-09T07:10:54.219Z,91.06
2023-02-09T07:11:54.921Z,91.06
2023-02-09T07:12:55.923Z,91.06
2023-02-09T07:13:56.147Z,90.64
2023-02-09T07:14:56.837Z,90.91
2023-02-09T07:15:57.653Z,91.02
2023-02-09T07:16:58.287Z,90.59
2023-02-09T07:17:59.409Z,90.59
2023-02-09T07:19:00.441Z,89.97
2023-02-09T07:20:00.141Z,89.76
2023-02-09T07:21:00.846Z,89.86
2023-02-09T07:22:01.554Z,89.93
2023-02-09T07:23:02.272Z,90.14
2023-02-09T07:24:02.980Z,89.61
2023-02-09T07:25:03.695Z,89.61
2023-02-09T07:26:04.414Z,89.40
2023-02-09T07:27:05.106Z,89.40
2023-02-09T07:28:05.962Z,89.15
2023-02-09T07:29:06.674Z,89.26
2023-02-09T07:30:07.372Z,89.26
2023-02-09T07:31:08.480Z,89.15
2023-02-09T07:32:08.725Z,89.26
2023-02-09T07:33:09.423Z,89.15
2023-02-09T07:34:10.144Z,89.36
2023-02-09T07:35:10.847Z,89.36
2023-02-09T07:36:11.595Z,89.68
2023-02-09T07:37:12.388Z,89.26
2023-02-09T07:38:13.409Z,89.99
2023-02-09T07:39:14.182Z,89.15
2023-02-09T07:40:15.030Z,89.36
2023-02-09T07:41:15.735Z,89.36
2023-02-09T07:42:16.448Z,89.58
2023-02-09T07:43:17.177Z,88.90
2023-02-09T07:44:17.901Z,88.07
2023-02-09T07:45:18.590Z,88.17
2023-02-09T07:46:19.398Z,88.07
2023-02-09T07:47:20.039Z,87.51
2023-02-09T07:48:20.913Z,88.03
2023-02-09T07:49:21.619Z,87.93
2023-02-09T07:50:22.321Z,87.82
2023-02-09T07:51:23.031Z,87.40
2023-02-09T07:52:23.743Z,87.93
2023-02-09T07:53:24.461Z,87.51
2023-02-09T07:54:25.162Z,86.94
2023-02-09T07:55:25.872Z,87.15
2023-02-09T07:56:26.574Z,86.63
2023-02-09T07:57:27.285Z,87.05
2023-02-09T07:58:28.002Z,86.84
2023-02-09T07:59:28.736Z,86.80
2023-02-09T08:00:29.414Z,85.76
2023-02-09T08:01:30.230Z,86.38
2023-02-09T08:02:30.896Z,86.59
2023-02-09T08:03:31.627Z,85.51
2023-02-09T08:04:32.322Z,85.72
2023-02-09T08:05:33.025Z,85.30
2023-02-09T08:06:41.911Z,85.20
2023-02-09T08:07:35.356Z,84.78
2023-02-09T08:08:35.074Z,84.43
2023-02-09T08:09:35.784Z,84.64
2023-02-09T08:10:36.506Z,84.43
2023-02-09T08:11:37.220Z,84.43
2023-02-09T08:12:37.935Z,85.05
2023-02-09T08:13:38.918Z,83.70
2023-02-09T08:14:39.669Z,83.35
2023-02-09T08:15:40.338Z,83.04
2023-02-09T08:16:41.071Z,82.62
2023-02-09T08:17:41.713Z,82.68
2023-02-09T08:18:42.904Z,84.25
2023-02-09T08:19:43.138Z,82.86
2023-02-09T08:20:43.829Z,82.37
2023-02-09T08:21:44.536Z,82.79
2023-02-09T08:22:45.255Z,83.20
2023-02-09T08:23:45.966Z,83.00
2023-02-09T08:24:46.716Z,82.79
2023-02-09T08:25:47.862Z,81.71
2023-02-09T08:26:48.216Z,82.37
2023-02-09T08:27:48.926Z,83.00
2023-02-09T08:28:49.668Z,82.48
2023-02-09T08:29:50.364Z,82.79
2023-02-09T08:30:51.098Z,83.10
2023-02-09T08:31:51.871Z,82.68
2023-02-09T08:32:52.689Z,83.00
2023-02-09T08:33:53.404Z,82.89
2023-02-09T08:34:54.120Z,82.48
2023-02-09T08:35:54.854Z,82.13
2023-02-09T08:36:55.564Z,82.75
2023-02-09T08:37:56.284Z,82.68
2023-02-09T08:38:57.012Z,82.68
2023-02-09T08:39:57.733Z,82.37
2023-02-09T08:40:58.441Z,82.06
2023-02-09T08:41:59.151Z,81.54
2023-02-09T08:42:59.859Z,81.50
2023-02-09T08:44:00.932Z,81.09
2023-02-09T08:45:01.177Z,81.40
2023-02-09T08:46:02.024Z,81.81
2023-02-09T08:47:02.872Z,81.71
2023-02-09T08:48:03.623Z,80.88
2023-02-09T08:49:04.460Z,80.67
2023-02-09T08:50:05.153Z,80.22
2023-02-09T08:51:05.834Z,80.94
2023-02-09T08:52:06.549Z,81.19
2023-02-09T08:53:07.255Z,81.81
2023-02-09T08:54:08.410Z,80.84
2023-02-09T08:55:08.616Z,80.32
2023-02-09T08:56:09.337Z,80.70
2023-02-09T08:57:10.062Z,80.94
2023-02-09T08:58:10.757Z,81.98
2023-02-09T08:59:11.911Z,81.81
2023-02-09T09:00:12.135Z,81.40
2023-02-09T09:01:12.885Z,81.26
2023-02-09T09:02:13.589Z,81.46
2023-02-09T09:03:14.216Z,81.05
2023-02-09T09:04:14.938Z,80.70
2023-02-09T09:05:15.678Z,80.18
2023-02-09T09:06:16.359Z,80.70
2023-02-09T09:07:17.067Z,80.29
2023-02-09T09:08:17.977Z,79.87
2023-02-09T09:09:18.914Z,80.01
2023-02-09T09:10:19.637Z,80.94
2023-02-09T09:11:20.377Z,81.15
2023-02-09T09:12:21.056Z,81.67
2023-02-09T09:13:21.770Z,81.15
2023-02-09T09:14:22.927Z,81.36
2023-02-09T09:15:23.177Z,81.05
2023-02-09T09:16:23.981Z,80.53
2023-02-09T09:17:24.687Z,80.70
2023-02-09T09:18:25.313Z,80.49
2023-02-09T09:19:26.420Z,80.94
2023-02-09T09:20:26.619Z,80.84
2023-02-09T09:21:27.346Z,80.84
2023-02-09T09:22:28.038Z,80.94
2023-02-09T09:23:28.750Z,80.74
2023-02-09T09:24:29.911Z,80.63
2023-02-09T09:25:30.153Z,80.80
2023-02-09T09:26:30.845Z,80.80
2023-02-09T09:27:31.556Z,80.29
2023-02-09T09:28:32.390Z,81.77
2023-02-09T09:29:33.411Z,81.67
2023-02-09T09:30:33.642Z,82.09
2023-02-09T09:31:34.502Z,81.12
2023-02-09T09:32:35.384Z,80.91
2023-02-09T09:33:36.108Z,80.80
2023-02-09T09:34:36.916Z,80.49
2023-02-09T09:35:37.630Z,80.39
2023-02-09T09:36:38.473Z,80.35
2023-02-09T09:37:39.290Z,80.49
2023-02-09T09:38:39.981Z,80.04
2023-02-09T09:39:40.933Z,79.41
2023-02-09T09:40:41.634Z,79.48
2023-02-09T09:41:42.338Z,79.80
2023-02-09T09:42:43.085Z,79.90
2023-02-09T09:43:43.787Z,80.00
2023-02-09T09:44:47.241Z,79.06
2023-02-09T09:45:45.501Z,78.65
2023-02-09T09:46:45.883Z,78.72
2023-02-09T09:47:46.628Z,78.06
2023-02-09T09:48:47.324Z,77.12
2023-02-09T09:49:48.414Z,77.68
2023-02-09T09:50:48.668Z,78.51
2023-02-09T09:51:49.362Z,78.86
2023-02-09T09:52:50.065Z,78.51
2023-02-09T09:53:50.777Z,78.61
2023-02-09T09:54:51.493Z,78.20
2023-02-09T09:55:52.263Z,78.41
2023-02-09T09:56:52.944Z,77.68
2023-02-09T09:57:53.654Z,77.54
2023-02-09T09:58:54.348Z,77.54
2023-02-09T09:59:55.108Z,77.33
2023-02-09T10:00:55.965Z,77.02
2023-02-09T10:01:56.669Z,77.68
2023-02-09T10:02:57.395Z,76.92
2023-02-09T10:03:58.034Z,76.92
2023-02-09T10:04:58.798Z,76.81
2023-02-09T10:05:59.463Z,76.68
2023-02-09T10:07:00.184Z,76.26
2023-02-09T10:08:00.890Z,76.40
2023-02-09T10:09:01.609Z,76.50
2023-02-09T10:10:02.437Z,76.71
2023-02-09T10:11:03.121Z,76.40
2023-02-09T10:12:03.833Z,75.98
2023-02-09T10:13:04.541Z,75.78
2023-02-09T10:14:05.249Z,76.61
2023-02-09T10:15:05.986Z,76.61
2023-02-09T10:16:06.707Z,76.61
2023-02-09T10:17:07.437Z,75.85
2023-02-09T10:18:08.124Z,76.26
2023-02-09T10:19:08.775Z,76.06
2023-02-09T10:20:09.492Z,76.16
2023-02-09T10:21:10.200Z,75.95
2023-02-09T10:22:10.915Z,75.54
2023-02-09T10:23:11.640Z,74.71
2023-02-09T10:24:12.327Z,74.88
2023-02-09T10:25:13.047Z,75.33
2023-02-09T10:26:13.750Z,75.85
2023-02-09T10:27:14.489Z,75.85
2023-02-09T10:28:15.238Z,76.16
2023-02-09T10:29:15.943Z,76.26
2023-02-09T10:30:16.644Z,75.50
2023-02-09T10:31:17.573Z,75.50
2023-02-09T10:32:18.390Z,74.74
2023-02-09T10:33:19.123Z,74.43
2023-02-09T10:34:19.766Z,74.95
2023-02-09T10:35:20.909Z,74.84
2023-02-09T10:36:21.115Z,74.46
2023-02-09T10:37:21.867Z,74.15
2023-02-09T10:38:22.572Z,74.57
2023-02-09T10:39:23.324Z,74.57
2023-02-09T10:40:24.038Z,73.39
2023-02-09T10:41:24.750Z,73.18
2023-02-09T10:42:25.462Z,73.15
2023-02-09T10:43:26.164Z,72.74
2023-02-09T10:44:26.871Z,72.60
2023-02-09T10:45:27.591Z,73.74
2023-02-09T10:46:28.362Z,71.84
2023-02-09T10:47:29.023Z,72.22
2023-02-09T10:48:29.740Z,71.39
2023-02-09T10:49:30.472Z,70.98
2023-02-09T10:50:31.413Z,71.50
2023-02-09T10:51:32.120Z,71.81
2023-02-09T10:52:32.828Z,71.43
2023-02-09T10:53:33.536Z,71.53
2023-02-09T10:54:34.240Z,71.88
2023-02-09T10:55:34.956Z,72.08
2023-02-09T10:56:35.663Z,72.32
2023-02-09T10:57:36.370Z,71.77
2023-02-09T10:58:37.092Z,71.53
2023-02-09T10:59:37.789Z,72.05
2023-02-09T11:00:38.908Z,72.15
2023-02-09T11:01:39.243Z,71.12
2023-02-09T11:02:39.936Z,70.91
2023-02-09T11:03:40.667Z,71.73
2023-02-09T11:04:41.414Z,71.94
2023-02-09T11:05:42.414Z,71.73
2023-02-09T11:06:42.627Z,71.53
2023-02-09T11:07:43.356Z,71.73
2023-02-09T11:08:44.114Z,70.91
2023-02-09T11:09:44.770Z,69.53
2023-02-09T11:10:45.935Z,69.77
2023-02-09T11:11:46.163Z,69.46
2023-02-09T11:12:46.894Z,70.08
2023-02-09T11:13:47.594Z,69.87
2023-02-09T11:14:48.308Z,70.36
2023-02-09T11:15:49.771Z,70.09
2023-02-09T11:16:50.010Z,68.51
2023-02-09T11:17:50.701Z,68.85
2023-02-09T11:18:51.430Z,68.40
2023-02-09T11:19:52.063Z,68.06
2023-02-09T11:20:52.915Z,67.96
2023-02-09T11:21:53.633Z,67.44
2023-02-09T11:22:54.341Z,68.19
2023-02-09T11:23:55.048Z,67.78
2023-02-09T11:24:55.865Z,67.54
2023-02-09T11:25:56.916Z,67.65
2023-02-09T11:26:57.200Z,67.34
2023-02-09T11:27:57.969Z,66.38
2023-02-09T11:28:58.637Z,65.83
2023-02-09T11:29:59.345Z,65.83
2023-02-09T11:31:00.508Z,65.70
2023-02-09T11:32:00.798Z,65.94
2023-02-09T11:33:01.471Z,65.52
2023-02-09T11:34:02.221Z,66.48
2023-02-09T11:35:02.866Z,66.69
2023-02-09T11:36:03.582Z,66.07
2023-02-09T11:37:04.302Z,66.55
2023-02-09T11:38:05.004Z,67.21
2023-02-09T11:39:05.721Z,66.79
2023-02-09T11:40:06.433Z,66.14
2023-02-09T11:41:07.432Z,65.39
2023-02-09T11:42:07.639Z,65.67
2023-02-09T11:43:08.544Z,65.36
2023-02-09T11:44:11.909Z,66.21
2023-02-09T11:45:10.136Z,65.59
2023-02-09T11:46:10.944Z,64.53
2023-02-09T11:47:11.769Z,64.77
2023-02-09T11:48:12.483Z,64.40
2023-02-09T11:49:13.193Z,64.40
2023-02-09T11:50:13.832Z,65.61
2023-02-09T11:51:15.057Z,63.07
2023-02-09T11:52:15.276Z,62.90
2023-02-09T11:53:15.993Z,64.34
2023-02-09T11:54:16.712Z,63.62
2023-02-09T11:55:17.424Z,63.24
2023-02-09T11:56:18.158Z,64.65
2023-02-09T11:57:18.853Z,62.82
2023-02-09T11:58:19.561Z,64.27
2023-02-09T11:59:20.275Z,63.78
2023-02-09T12:00:20.984Z,64.29
2023-02-09T12:01:22.225Z,64.89
2023-02-09T12:02:23.798Z,64.14
2023-02-09T12:03:23.037Z,63.28
2023-02-09T12:04:23.767Z,64.11
2023-02-09T12:05:24.395Z,62.87
2023-02-09T12:06:25.168Z,63.15
2023-02-09T12:07:25.813Z,61.91
2023-02-09T12:08:26.521Z,62.79
2023-02-09T12:09:27.250Z,63.47
2023-02-09T12:10:27.960Z,64.32
2023-02-09T12:11:28.938Z,63.92
2023-02-09T12:12:29.637Z,63.53
2023-02-09T12:13:30.348Z,63.53
2023-02-09T12:14:31.061Z,64.56
2023-02-09T12:15:31.779Z,63.95
2023-02-09T12:16:32.560Z,63.92
2023-02-09T12:17:33.233Z,62.54
2023-02-09T12:18:33.917Z,62.00
2023-02-09T12:19:34.642Z,62.34
2023-02-09T12:20:35.279Z,61.41
2023-02-09T12:21:36.423Z,61.38
2023-02-09T12:22:36.637Z,61.87
2023-02-09T12:23:37.352Z,61.63
2023-02-09T12:24:38.061Z,60.91
2023-02-09T12:25:38.774Z,60.19
2023-02-09T12:26:39.926Z,60.77
2023-02-09T12:27:40.137Z,61.59
2023-02-09T12:28:40.836Z,62.41
2023-02-09T12:29:41.551Z,63.60
2023-02-09T12:30:42.396Z,63.47
2023-02-09T12:31:45.954Z,63.34
2023-02-09T12:32:43.963Z,62.96
2023-02-09T12:33:44.649Z,62.65
2023-02-09T12:34:45.366Z,62.75
2023-02-09T12:35:46.016Z,63.60
2023-02-09T12:36:46.921Z,64.12
2023-02-09T12:37:47.644Z,64.92
2023-02-09T12:38:51.298Z,63.45
2023-02-09T12:39:49.942Z,63.27
2023-02-09T12:40:49.646Z,63.37
2023-02-09T12:41:50.433Z,64.29
2023-02-09T12:42:51.138Z,64.61
2023-02-09T12:43:51.843Z,63.75
2023-02-09T12:44:52.565Z,64.17
2023-02-09T12:45:53.294Z,63.72
2023-02-09T12:46:54.429Z,64.14
2023-02-09T12:47:54.654Z,61.94
2023-02-09T12:48:55.352Z,62.25
2023-02-09T12:49:56.231Z,62.56
2023-02-09T12:50:56.909Z,61.22
2023-02-09T12:51:57.937Z,62.18
2023-02-09T12:52:58.132Z,62.62
2023-02-09T12:53:58.839Z,62.31
2023-02-09T12:54:59.569Z,61.80
2023-02-09T12:56:00.279Z,62.07
2023-02-09T12:57:01.429Z,63.99
2023-02-09T12:58:01.644Z,63.47
2023-02-09T12:59:02.354Z,63.81
2023-02-09T13:00:03.058Z,64.19
2023-02-09T13:01:03.832Z,64.06
2023-02-09T13:02:05.392Z,61.77